Time;durP1;ratioP1;P1;durP2;ratioP2;P2;SDS_P1;SDS_P2;PMS_P1;PMS_P2;Temp;Humidity;BMP_temperature;BMP_pressure;BME280_temperature;BME280_humidity;BME280_pressure;Samples;Min_cycle;Max_cycle;Signal;HPM_P1;HPM_P2
2024/01/16 00:02:02;;;;;;;68.10;36.60;;;;;;;3.22;82.80;98180.13;5133094;27;20992;-57
2024/01/16 00:04:31;;;;;;;74.13;38.03;;;;;;;3.21;82.62;98178.50;5133116;27;20623;-57
2024/01/16 00:06:57;;;;;;;75.70;38.77;;;;;;;3.22;82.96;98174.88;5133502;27;20201;-57
2024/01/16 00:09:24;;;;;;;75.80;39.97;;;;;;;3.23;83.23;98176.50;5132947;27;20946;-57
2024/01/16 00:11:51;;;;;;;70.50;38.27;;;;;;;3.26;83.77;98165.66;5133375;27;20439;-57
2024/01/16 00:14:18;;;;;;;74.53;39.83;;;;;;;3.34;83.50;98169.97;5133173;27;20190;-58
2024/01/16 00:16:46;;;;;;;79.07;39.60;;;;;;;3.39;83.06;98173.69;5133457;27;20236;-57
2024/01/16 00:19:12;;;;;;;70.07;37.20;;;;;;;3.39;82.83;98176.31;5132700;27;20482;-57
2024/01/16 00:21:41;;;;;;;66.40;37.10;;;;;;;3.44;82.67;98178.41;5133355;27;20239;-57
2024/01/16 00:24:08;;;;;;;68.43;35.57;;;;;;;3.42;82.42;98169.88;5132509;27;20190;-57
2024/01/16 00:26:35;;;;;;;73.47;36.73;;;;;;;3.42;82.50;98175.13;5132831;27;20193;-57
2024/01/16 00:29:01;;;;;;;68.23;35.73;;;;;;;3.39;82.07;98181.56;5133157;27;20444;-57
2024/01/16 00:31:28;;;;;;;67.60;37.17;;;;;;;3.41;82.34;98194.50;5133021;27;20221;-58
2024/01/16 00:33:55;;;;;;;75.23;37.30;;;;;;;3.40;82.19;98193.72;5133163;27;20193;-57
2024/01/16 00:36:22;;;;;;;73.20;36.97;;;;;;;3.38;81.76;98182.56;5132457;27;20243;-58
2024/01/16 00:38:50;;;;;;;71.87;37.57;;;;;;;3.37;81.44;98188.81;5132509;27;20259;-58
2024/01/16 00:41:16;;;;;;;73.70;37.70;;;;;;;3.35;82.32;98192.63;5132539;27;20431;-57
2024/01/16 00:43:44;;;;;;;68.63;37.17;;;;;;;3.25;81.91;98203.41;5132618;27;20627;-58
2024/01/16 00:46:11;;;;;;;71.20;36.23;;;;;;;3.11;82.39;98198.94;5132735;27;20499;-58
2024/01/16 00:48:37;;;;;;;74.77;38.57;;;;;;;3.18;82.87;98184.13;5132605;28;20234;-58
2024/01/16 00:51:05;;;;;;;68.13;36.47;;;;;;;3.24;82.40;98172.91;5132676;28;20447;-58
2024/01/16 00:53:32;;;;;;;68.03;35.93;;;;;;;3.29;81.98;98167.94;5132272;28;20223;-58
2024/01/16 00:56:00;;;;;;;65.93;36.93;;;;;;;3.31;82.12;98173.78;5132300;28;20197;-58
2024/01/16 00:58:27;;;;;;;70.20;38.23;;;;;;;3.31;82.54;98176.41;5132736;28;20475;-58
2024/01/16 01:00:53;;;;;;;70.83;38.40;;;;;;;3.35;81.99;98174.25;5132296;28;20528;-58
2024/01/16 01:03:20;;;;;;;65.50;36.03;;;;;;;3.36;81.33;98175.88;5132731;28;20193;-58
2024/01/16 01:05:47;;;;;;;76.63;38.13;;;;;;;3.33;81.78;98161.31;5132593;28;20439;-58
2024/01/16 01:08:13;;;;;;;63.83;36.30;;;;;;;3.30;81.77;98161.69;5131962;28;20205;-58
2024/01/16 01:10:40;;;;;;;69.43;36.23;;;;;;;3.30;81.65;98166.94;5132273;28;20443;-59
2024/01/16 01:13:08;;;;;;;71.43;37.37;;;;;;;3.24;81.17;98158.97;5132466;28;20194;-58
2024/01/16 01:15:35;;;;;;;67.37;37.70;;;;;;;3.11;80.84;98156.97;5132491;28;20194;-58
2024/01/16 01:18:02;;;;;;;74.60;36.67;;;;;;;3.05;82.13;98152.47;5132202;28;20755;-58
2024/01/16 01:20:29;;;;;;;70.57;36.87;;;;;;;3.04;82.87;98153.47;5132408;28;20186;-58
2024/01/16 01:22:55;;;;;;;69.77;36.80;;;;;;;3.05;82.59;98152.47;5132583;28;20450;-57
2024/01/16 01:25:22;;;;;;;73.20;38.20;;;;;;;3.05;82.14;98131.50;5132082;28;20854;-58
2024/01/16 01:27:49;;;;;;;72.70;37.10;;;;;;;3.04;81.95;98132.50;5132143;28;20186;-57
2024/01/16 01:30:17;;;;;;;84.90;39.00;;;;;;;2.97;82.00;98133.38;5132241;28;20213;-58
2024/01/16 01:32:44;;;;;;;106.20;38.17;;;;;;;2.90;82.75;98128.06;5132054;28;20965;-57
2024/01/16 01:35:11;;;;;;;83.83;38.17;;;;;;;2.83;82.53;98114.06;5132323;27;20441;-57
2024/01/16 01:37:38;;;;;;;90.80;38.20;;;;;;;2.79;83.15;98110.16;5135483;27;20529;-58
2024/01/16 01:40:06;;;;;;;91.33;41.07;;;;;;;2.81;83.24;98121.28;5136153;27;20443;-58
2024/01/16 01:42:32;;;;;;;93.93;38.63;;;;;;;2.82;83.78;98125.50;5135970;27;20861;-58
2024/01/16 01:44:59;;;;;;;99.87;39.10;;;;;;;2.66;82.68;98112.59;5135801;27;20495;-58
2024/01/16 01:47:28;;;;;;;107.33;40.40;;;;;;;2.45;83.43;98122.16;5136042;27;20495;-58
2024/01/16 01:49:55;;;;;;;102.03;39.90;;;;;;;2.31;84.41;98131.63;5136035;27;20504;-57
2024/01/16 01:52:22;;;;;;;101.43;40.37;;;;;;;2.33;84.12;98134.84;5135968;27;20435;-58
2024/01/16 01:54:50;;;;;;;97.37;42.13;;;;;;;2.34;84.93;98131.25;5136070;27;20542;-58
2024/01/16 01:57:16;;;;;;;86.50;40.50;;;;;;;2.41;85.09;98142.63;5135563;27;20472;-57
2024/01/16 01:59:43;;;;;;;85.27;40.03;;;;;;;2.45;85.10;98133.44;5135992;27;20474;-57
2024/01/16 02:02:11;;;;;;;85.63;41.60;;;;;;;2.47;85.44;98136.69;5135666;27;20499;-57
2024/01/16 02:04:41;;;;;;;84.90;41.37;;;;;;;2.45;85.04;98133.44;5135482;27;20435;-58
2024/01/16 02:07:08;;;;;;;88.80;40.43;;;;;;;2.46;84.57;98127.22;5135670;27;20439;-58
2024/01/16 02:09:35;;;;;;;97.60;41.23;;;;;;;2.45;83.95;98128.19;5135691;27;20442;-58
2024/01/16 02:12:02;;;;;;;90.10;39.13;;;;;;;2.45;84.59;98143.13;5135267;27;20439;-58
2024/01/16 02:14:29;;;;;;;82.77;39.10;;;;;;;2.44;85.24;98139.66;5135317;27;20443;-58
2024/01/16 02:16:56;;;;;;;80.17;40.90;;;;;;;2.45;84.43;98138.66;5135444;27;20873;-58
2024/01/16 02:19:24;;;;;;;82.53;39.63;;;;;;;2.44;83.86;98137.06;5135399;27;20475;-58
2024/01/16 02:21:55;;;;;;;82.77;38.50;;;;;;;2.44;84.80;98141.47;5135071;27;20445;-57
2024/01/16 02:24:24;;;;;;;78.53;39.23;;;;;;;2.43;85.35;98140.66;5135206;27;20994;-57
2024/01/16 02:26:50;;;;;;;75.73;38.03;;;;;;;2.41;85.57;98142.63;5135304;27;20431;-58
2024/01/16 02:29:17;;;;;;;74.77;37.17;;;;;;;2.42;85.37;98144.28;5134952;27;20492;-58
2024/01/16 02:31:44;;;;;;;67.53;38.23;;;;;;;2.42;85.59;98149.53;5134849;27;20443;-58
2024/01/16 02:34:11;;;;;;;71.73;38.57;;;;;;;2.38;85.99;98148.25;5135179;27;20435;-58
2024/01/16 02:36:37;;;;;;;69.93;38.63;;;;;;;2.41;86.37;98142.63;5134966;27;20467;-58
2024/01/16 02:39:06;;;;;;;78.07;40.67;;;;;;;2.48;86.18;98147.97;5135131;27;20463;-57
2024/01/16 02:41:34;;;;;;;76.93;40.10;;;;;;;2.52;85.57;98155.31;5135050;27;20434;-57
2024/01/16 02:44:01;;;;;;;71.93;37.37;;;;;;;2.53;84.82;98154.31;5135200;27;20225;-58
2024/01/16 02:46:28;;;;;;;65.53;36.73;;;;;;;2.55;85.55;98162.84;5134536;27;20439;-58
2024/01/16 02:48:54;;;;;;;64.97;36.70;;;;;;;2.60;85.00;98142.16;5134202;27;20820;-57
2024/01/16 02:51:21;;;;;;;69.47;37.83;;;;;;;2.66;85.14;98132.75;5134677;27;20496;-57
2024/01/16 02:53:48;;;;;;;74.73;38.67;;;;;;;2.69;85.96;98141.06;5134588;27;20961;-57
2024/01/16 02:56:15;;;;;;;66.37;37.83;;;;;;;2.73;84.97;98152.81;5134431;27;20837;-57
2024/01/16 02:58:43;;;;;;;73.37;40.63;;;;;;;2.75;84.68;98157.88;5134809;27;20471;-57
2024/01/16 03:01:09;;;;;;;72.83;40.13;;;;;;;2.77;84.40;98153.28;5134339;27;20947;-57
2024/01/16 03:03:36;;;;;;;77.57;38.47;;;;;;;2.80;84.81;98155.53;5134694;27;20198;-57
2024/01/16 03:06:03;;;;;;;68.17;36.43;;;;;;;2.72;84.86;98164.31;5134556;27;20495;-58
2024/01/16 03:08:30;;;;;;;73.37;38.47;;;;;;;2.59;85.00;98166.72;5134133;27;21043;-57
2024/01/16 03:10:57;;;;;;;64.53;36.10;;;;;;;2.61;85.77;98159.50;5134237;27;20435;-57
2024/01/16 03:13:23;;;;;;;68.50;37.17;;;;;;;2.68;85.66;98168.28;5134430;27;20443;-57
2024/01/16 03:15:51;;;;;;;63.57;36.03;;;;;;;2.66;84.15;98158.97;5134155;27;20435;-58
2024/01/16 03:18:18;;;;;;;61.57;34.90;;;;;;;2.65;85.05;98165.19;5134168;27;20459;-57
2024/01/16 03:20:45;;;;;;;68.27;34.83;;;;;;;2.69;84.85;98162.03;5134276;27;20500;-57
2024/01/16 03:23:11;;;;;;;65.27;35.87;;;;;;;2.72;84.82;98171.34;5133842;27;20504;-57
2024/01/16 03:25:38;;;;;;;62.43;37.20;;;;;;;2.70;84.93;98166.28;5133898;27;20945;-57
2024/01/16 03:28:07;;;;;;;71.47;37.23;;;;;;;2.69;84.48;98158.63;5133780;27;20979;-57
2024/01/16 03:30:34;;;;;;;67.47;36.63;;;;;;;2.71;84.27;98154.81;5134179;27;20443;-57
2024/01/16 03:33:03;;;;;;;70.33;35.47;;;;;;;2.71;83.43;98162.69;5134094;27;20439;-57
2024/01/16 03:35:29;;;;;;;62.80;35.57;;;;;;;2.69;82.93;98167.28;5134036;27;20190;-57
2024/01/16 03:37:56;;;;;;;63.90;33.53;;;;;;;2.64;83.66;98174.88;5133778;27;20463;-58
2024/01/16 03:40:23;;;;;;;73.20;36.07;;;;;;;2.64;83.59;98180.09;5133464;27;20544;-57
2024/01/16 03:42:49;;;;;;;59.43;36.37;;;;;;;2.65;84.27;98183.56;5133428;27;20851;-58
2024/01/16 03:45:16;;;;;;;62.47;34.60;;;;;;;2.64;83.95;98180.09;5133703;27;20432;-58
2024/01/16 03:47:43;;;;;;;67.60;34.40;;;;;;;2.65;84.39;98192.22;5133688;27;20439;-57
2024/01/16 03:50:11;;;;;;;59.30;33.53;;;;;;;2.66;83.66;98187.78;5133761;27;20526;-57
2024/01/16 03:52:38;;;;;;;59.73;33.10;;;;;;;2.62;83.29;98197.78;5133228;27;20531;-58
2024/01/16 03:55:05;;;;;;;65.83;33.97;;;;;;;2.58;83.74;98201.75;5133262;27;20950;-58
2024/01/16 03:57:32;;;;;;;60.90;34.27;;;;;;;2.60;84.04;98207.66;5133497;27;20436;-58
2024/01/16 03:59:59;;;;;;;68.17;36.53;;;;;;;2.63;83.30;98207.31;5132340;27;20470;-57
2024/01/16 04:02:25;;;;;;;65.53;34.27;;;;;;;2.51;83.07;98216.59;5133137;27;20485;-58
2024/01/16 04:04:52;;;;;;;62.50;33.07;;;;;;;2.50;84.09;98225.44;5133157;27;20942;-57
2024/01/16 04:07:23;;;;;;;63.37;32.03;;;;;;;2.52;84.41;98228.69;5133069;27;20450;-57
2024/01/16 04:09:50;;;;;;;60.27;35.67;;;;;;;2.56;84.25;98222.09;5133440;27;20614;-57
2024/01/16 04:12:16;;;;;;;54.83;32.40;;;;;;;2.58;84.20;98232.41;5133158;27;20496;-58
2024/01/16 04:14:43;;;;;;;57.97;32.07;;;;;;;2.57;84.64;98241.28;5132948;27;20941;-57
2024/01/16 04:17:10;;;;;;;64.13;34.83;;;;;;;2.55;83.98;98264.22;5133232;27;20508;-58
2024/01/16 04:19:36;;;;;;;56.33;33.27;;;;;;;2.56;84.32;98256.19;5133143;27;20574;-57
2024/01/16 04:22:04;;;;;;;59.30;34.77;;;;;;;2.61;83.99;98256.44;5132579;27;20443;-57
2024/01/16 04:24:32;;;;;;;64.57;34.10;;;;;;;2.64;84.17;98263.16;5132974;27;20201;-57
2024/01/16 04:26:59;;;;;;;62.87;33.70;;;;;;;2.57;84.07;98270.91;5132749;27;21022;-58
2024/01/16 04:29:26;;;;;;;57.17;32.37;;;;;;;2.47;83.73;98264.25;5132723;27;21000;-57
2024/01/16 04:31:53;;;;;;;68.23;33.27;;;;;;;2.45;84.63;98269.69;5140309;27;20511;-57
2024/01/16 04:34:19;;;;;;;56.50;32.47;;;;;;;2.43;85.02;98278.72;5153292;27;20430;-58
2024/01/16 04:36:46;;;;;;;68.60;35.63;;;;;;;2.46;85.51;98265.25;5153125;27;20530;-57
2024/01/16 04:39:13;;;;;;;64.60;34.07;;;;;;;2.55;86.18;98269.44;5112211;28;20464;-59
2024/01/16 04:41:41;;;;;;;60.93;32.93;;;;;;;2.60;85.04;98270.56;5122141;27;20439;-58
2024/01/16 04:44:08;;;;;;;62.43;33.43;;;;;;;2.62;84.96;98286.91;5132489;27;20439;-58
2024/01/16 04:46:35;;;;;;;71.97;35.73;;;;;;;2.70;84.96;98278.97;5132405;27;20499;-58
2024/01/16 04:49:02;;;;;;;69.10;34.63;;;;;;;2.72;83.84;98297.16;5132299;27;20962;-58
2024/01/16 04:51:29;;;;;;;63.90;33.70;;;;;;;2.73;84.08;98304.06;5132600;27;20863;-58
2024/01/16 04:53:55;;;;;;;59.83;33.70;;;;;;;2.75;83.71;98302.06;5132688;28;20443;-58
2024/01/16 04:56:22;;;;;;;65.13;34.07;;;;;;;2.78;83.59;98299.88;5132455;28;20446;-57
2024/01/16 04:58:52;;;;;;;69.47;35.27;;;;;;;2.79;83.91;98304.16;5132442;28;20500;-57
2024/01/16 05:01:18;;;;;;;67.37;36.60;;;;;;;2.84;83.91;98317.56;5132130;28;20212;-58
2024/01/16 05:03:45;;;;;;;62.77;35.80;;;;;;;2.84;84.54;98321.97;5131957;28;20194;-58
2024/01/16 05:06:16;;;;;;;75.23;34.47;;;;;;;2.88;84.16;98331.94;5131625;28;20443;-58
2024/01/16 05:08:42;;;;;;;54.57;33.67;;;;;;;2.92;84.01;98333.22;5131887;28;20435;-58
2024/01/16 05:11:09;;;;;;;75.13;36.57;;;;;;;2.93;83.42;98334.84;5134427;27;20250;-56
2024/01/16 05:13:36;;;;;;;66.10;35.27;;;;;;;2.89;84.32;98336.19;5135829;27;20439;-56
2024/01/16 05:16:05;;;;;;;65.60;34.20;;;;;;;2.83;83.76;98339.53;5136172;27;20439;-57
2024/01/16 05:18:32;;;;;;;62.00;34.93;;;;;;;2.82;83.68;98339.69;5135854;27;20431;-56
2024/01/16 05:20:59;;;;;;;61.23;35.97;;;;;;;2.81;83.77;98338.88;5135971;27;20477;-57
2024/01/16 05:23:26;;;;;;;69.47;36.27;;;;;;;2.70;84.34;98346.34;5135568;27;20443;-57
2024/01/16 05:25:52;;;;;;;66.07;35.20;;;;;;;2.66;83.74;98361.56;5135684;27;20947;-57
2024/01/16 05:28:19;;;;;;;64.20;34.53;;;;;;;2.59;84.51;98372.94;5135932;27;20427;-57
2024/01/16 05:30:46;;;;;;;61.90;34.57;;;;;;;2.30;84.51;98376.22;5135607;27;20443;-57
2024/01/16 05:33:14;;;;;;;73.17;36.40;;;;;;;2.20;86.00;98388.69;5135323;27;20443;-56
2024/01/16 05:35:40;;;;;;;71.63;34.93;;;;;;;2.10;86.18;98390.72;5135848;27;20442;-57
2024/01/16 05:38:07;;;;;;;67.90;34.30;;;;;;;2.08;87.32;98387.44;5135561;27;20496;-58
2024/01/16 05:40:34;;;;;;;67.67;34.77;;;;;;;2.04;87.64;98407.09;5135181;27;21010;-58
2024/01/16 05:43:01;;;;;;;67.10;35.40;;;;;;;1.98;87.48;98412.19;5127960;27;20447;-59
2024/01/16 05:45:28;;;;;;;66.40;33.60;;;;;;;1.90;87.88;98414.81;5126117;27;20454;-57
2024/01/16 05:47:55;;;;;;;52.03;28.87;;;;;;;1.93;87.96;98417.94;5135037;27;20427;-57
2024/01/16 05:50:23;;;;;;;24.40;13.40;;;;;;;2.09;89.73;98422.31;5135063;27;20539;-60
2024/01/16 05:52:50;;;;;;;57.77;30.97;;;;;;;2.84;93.49;98437.34;5134598;27;20439;-57
2024/01/16 05:55:16;;;;;;;59.30;29.03;;;;;;;2.88;87.99;98455.19;5134642;27;20447;-58
2024/01/16 05:57:43;;;;;;;54.23;30.50;;;;;;;2.90;85.03;98462.88;5134907;27;20897;-58
2024/01/16 06:00:11;;;;;;;54.57;27.80;;;;;;;2.84;85.15;98459.13;5135200;27;20225;-58
2024/01/16 06:02:37;;;;;;;52.17;26.33;;;;;;;2.70;84.87;98461.66;5135295;27;20439;-58
2024/01/16 06:05:05;;;;;;;40.63;24.50;;;;;;;2.48;85.64;98463.25;5135229;27;20940;-58
2024/01/16 06:07:33;;;;;;;45.13;24.37;;;;;;;2.59;85.43;98460.25;5135687;27;20447;-58
2024/01/16 06:10:00;;;;;;;43.63;26.33;;;;;;;2.61;85.19;98465.31;5134481;27;20435;-58
2024/01/16 06:12:27;;;;;;;64.23;26.17;;;;;;;2.55;86.11;98464.19;5135015;27;20512;-59
2024/01/16 06:14:54;;;;;;;37.27;23.47;;;;;;;2.70;86.18;98472.97;5135246;27;20500;-58
2024/01/16 06:17:20;;;;;;;44.57;25.07;;;;;;;2.83;87.60;98473.25;5135186;27;20926;-59
2024/01/16 06:19:47;;;;;;;43.97;22.03;;;;;;;3.06;87.74;98481.94;5135347;27;20466;-58
2024/01/16 06:22:14;;;;;;;32.13;20.90;;;;;;;3.29;88.54;98487.19;5127546;27;20965;-59
2024/01/16 06:24:42;;;;;;;30.27;15.60;;;;;;;3.57;88.54;98499.63;5134690;27;20436;-57
2024/01/16 06:27:09;;;;;;;17.63;13.33;;;;;;;3.94;88.39;98507.53;5134564;27;20591;-58
2024/01/16 06:29:36;;;;;;;22.47;13.13;;;;;;;4.24;88.68;98518.88;5133051;27;20202;-58
2024/01/16 06:32:02;;;;;;;13.03;10.43;;;;;;;4.52;87.92;98519.88;5133497;27;20197;-58
2024/01/16 06:34:29;;;;;;;14.87;8.73;;;;;;;4.79;87.64;98525.28;5133605;27;20198;-58
2024/01/16 06:36:56;;;;;;;16.83;9.17;;;;;;;5.06;87.14;98537.78;5131934;27;20237;-58
2024/01/16 06:39:23;;;;;;;9.57;8.60;;;;;;;5.26;86.97;98538.84;5133780;27;20193;-59
2024/01/16 06:41:51;;;;;;;23.77;13.53;;;;;;;5.59;85.66;98542.63;5133852;27;20716;-58
2024/01/16 06:44:17;;;;;;;8.47;7.13;;;;;;;5.90;85.47;98557.31;5132291;27;20228;-57
2024/01/16 06:46:44;;;;;;;9.43;7.37;;;;;;;6.16;84.14;98557.56;5132941;27;20338;-58
2024/01/16 06:49:11;;;;;;;7.57;6.80;;;;;;;6.37;83.14;98565.44;5134001;27;20254;-58
2024/01/16 06:51:37;;;;;;;7.53;6.80;;;;;;;6.54;82.85;98582.59;5133572;27;20662;-58
2024/01/16 06:54:04;;;;;;;6.37;5.77;;;;;;;6.66;82.63;98583.69;5131151;27;20247;-58
2024/01/16 06:56:31;;;;;;;8.77;6.77;;;;;;;6.86;81.89;98587.28;5134132;27;20192;-58
2024/01/16 06:58:59;;;;;;;7.73;6.87;;;;;;;6.98;81.09;98596.28;5133583;27;20186;-59
2024/01/16 07:01:27;;;;;;;7.37;6.67;;;;;;;7.10;81.30;98606.06;5133388;27;20698;-58
2024/01/16 07:03:54;;;;;;;7.10;6.40;;;;;;;7.21;79.93;98620.53;5131588;27;20253;-58
2024/01/16 07:06:21;;;;;;;6.10;5.60;;;;;;;7.31;79.40;98621.03;5133475;27;20577;-57
2024/01/16 07:08:48;;;;;;;9.00;6.00;;;;;;;7.33;79.97;98635.66;5133099;27;20672;-58
2024/01/16 07:11:14;;;;;;;7.53;6.73;;;;;;;7.37;79.65;98641.34;5134196;27;20193;-58
2024/01/16 07:13:41;;;;;;;17.27;6.77;;;;;;;7.43;79.76;98651.94;5133922;27;20197;-58
2024/01/16 07:16:12;;;;;;;33.67;17.03;;;;;;;7.47;79.87;98655.03;5130966;27;20692;-58
2024/01/16 07:18:39;;;;;;;7.80;7.13;;;;;;;7.40;80.47;98667.38;5133263;27;20266;-58
2024/01/16 07:21:05;;;;;;;12.60;8.93;;;;;;;7.48;80.52;98672.50;5133133;27;20217;-59
2024/01/16 07:23:32;;;;;;;13.30;8.30;;;;;;;7.58;79.85;98672.94;5133566;27;20194;-58
2024/01/16 07:25:59;;;;;;;8.53;7.73;;;;;;;7.52;81.31;98685.09;5133934;27;20197;-58
2024/01/16 07:28:26;;;;;;;8.17;7.30;;;;;;;7.53;80.90;98686.75;5133826;27;20201;-59
2024/01/16 07:30:54;;;;;;;10.03;8.40;;;;;;;7.57;80.93;98697.75;5133481;27;20626;-58
2024/01/16 07:33:23;;;;;;;9.97;7.37;;;;;;;7.55;81.08;98692.66;5133368;27;20741;-59
2024/01/16 07:35:49;;;;;;;11.00;7.77;;;;;;;7.50;80.67;98710.09;5133160;27;20197;-59
2024/01/16 07:38:16;;;;;;;8.00;6.97;;;;;;;7.57;80.34;98718.88;5133946;27;20657;-60
2024/01/16 07:40:43;;;;;;;8.67;7.23;;;;;;;7.44;79.89;98709.06;5133571;27;20266;-57
2024/01/16 07:43:09;;;;;;;17.27;8.40;;;;;;;7.66;79.46;98728.28;5133196;27;20197;-58
2024/01/16 07:45:36;;;;;;;7.63;5.23;;;;;;;7.66;78.44;98754.69;5132894;27;20721;-59
2024/01/16 07:48:03;;;;;;;40.50;7.07;;;;;;;7.75;78.01;98762.28;5133339;27;20250;-58
2024/01/16 07:50:31;;;;;;;5.83;5.27;;;;;;;7.79;78.28;98781.19;5133386;27;20190;-59
2024/01/16 07:52:58;;;;;;;7.00;5.53;;;;;;;7.65;78.39;98775.03;5132005;27;20228;-59
2024/01/16 07:55:24;;;;;;;6.13;5.60;;;;;;;7.67;77.80;98786.22;5132918;27;20194;-59
2024/01/16 07:57:51;;;;;;;9.47;6.17;;;;;;;7.76;78.07;98798.25;5133194;27;20665;-59
2024/01/16 08:00:18;;;;;;;10.20;5.43;;;;;;;7.83;77.32;98807.06;5132958;27;20210;-59
2024/01/16 08:02:45;;;;;;;7.13;6.53;;;;;;;7.72;78.02;98820.81;5133206;27;20189;-59
2024/01/16 08:05:12;;;;;;;5.33;4.93;;;;;;;7.73;77.48;98824.28;5132880;27;20190;-59
2024/01/16 08:07:43;;;;;;;7.33;4.67;;;;;;;7.78;76.41;98827.97;5133098;27;20197;-59
2024/01/16 08:10:10;;;;;;;12.50;7.80;;;;;;;7.85;76.14;98838.59;5132526;27;20626;-59
2024/01/16 08:12:38;;;;;;;6.13;5.73;;;;;;;7.84;76.23;98842.25;5132186;27;20220;-59
2024/01/16 08:15:07;;;;;;;5.50;5.00;;;;;;;7.81;75.22;98832.06;5132595;27;20266;-59
2024/01/16 08:17:34;;;;;;;5.80;4.63;;;;;;;7.82;75.84;98838.97;5132945;27;20190;-59
2024/01/16 08:20:00;;;;;;;6.63;4.20;;;;;;;7.82;74.97;98845.09;5132516;27;20193;-59
2024/01/16 08:22:27;;;;;;;5.80;5.30;;;;;;;7.93;75.02;98841.06;5132705;27;20246;-59
2024/01/16 08:24:55;;;;;;;4.73;4.37;;;;;;;7.94;74.16;98845.34;5132465;27;20243;-59
2024/01/16 08:27:22;;;;;;;15.07;5.03;;;;;;;8.00;74.90;98855.94;5132505;27;20243;-59
2024/01/16 08:29:49;;;;;;;4.40;4.03;;;;;;;8.07;73.91;98853.34;5131937;27;20665;-59
2024/01/16 08:32:16;;;;;;;7.50;4.90;;;;;;;8.10;74.98;98858.25;5132593;27;20193;-58
2024/01/16 08:34:43;;;;;;;5.70;4.60;;;;;;;8.11;74.60;98859.88;5132262;27;20250;-59
2024/01/16 08:37:10;;;;;;;100.83;9.47;;;;;;;8.13;74.23;98868.44;5131985;27;20217;-59
2024/01/16 08:39:37;;;;;;;7.73;4.03;;;;;;;8.18;73.62;98872.16;5132385;27;20192;-58
2024/01/16 08:42:05;;;;;;;13.67;4.17;;;;;;;8.35;71.79;98862.06;5132312;27;20225;-59
2024/01/16 08:44:32;;;;;;;5.27;3.60;;;;;;;8.32;71.47;98873.84;5132109;27;20215;-59
2024/01/16 08:47:00;;;;;;;4.17;3.70;;;;;;;8.35;70.58;98892.00;5132165;27;20194;-59
2024/01/16 08:49:27;;;;;;;16.37;5.83;;;;;;;8.46;71.04;98907.28;5132536;27;20193;-59
2024/01/16 08:51:53;;;;;;;21.93;5.43;;;;;;;8.38;70.81;98902.16;5132164;28;20193;-60
2024/01/16 08:54:22;;;;;;;11.13;4.30;;;;;;;8.31;69.68;98913.75;5132066;28;20239;-59
2024/01/16 08:56:49;;;;;;;5.33;4.83;;;;;;;8.44;69.49;98921.72;5132239;28;20185;-59
2024/01/16 08:59:17;;;;;;;4.20;3.90;;;;;;;8.32;69.87;98920.66;5131654;28;20243;-59
2024/01/16 09:01:44;;;;;;;12.67;3.67;;;;;;;8.56;68.61;98936.88;5132379;28;20221;-59
2024/01/16 09:04:11;;;;;;;4.00;3.80;;;;;;;8.69;68.50;98946.69;5132179;28;20190;-59
2024/01/16 09:06:38;;;;;;;9.00;4.63;;;;;;;8.74;68.15;98946.94;5131937;28;20582;-58
2024/01/16 09:09:05;;;;;;;5.03;4.67;;;;;;;8.80;68.42;98946.13;5132670;28;20217;-58
2024/01/16 09:11:32;;;;;;;5.00;4.47;;;;;;;8.82;67.95;98958.16;5132117;28;20205;-58
2024/01/16 09:13:59;;;;;;;6.83;5.83;;;;;;;8.94;68.23;98953.94;5131991;28;20699;-58
2024/01/16 09:16:27;;;;;;;8.43;4.53;;;;;;;8.96;66.73;98951.09;5131818;28;20194;-58
2024/01/16 09:18:54;;;;;;;6.30;4.50;;;;;;;9.10;66.22;98958.03;5132302;28;20194;-58
2024/01/16 09:21:21;;;;;;;8.57;4.40;;;;;;;9.18;66.01;98960.50;5131253;28;20791;-58
2024/01/16 09:23:48;;;;;;;5.83;3.20;;;;;;;9.26;64.45;98968.28;5131698;28;20194;-58
2024/01/16 09:26:14;;;;;;;83.37;7.63;;;;;;;9.48;62.72;98969.78;5131460;28;20656;-59
2024/01/16 09:28:41;;;;;;;4.80;2.57;;;;;;;9.75;62.08;98968.75;5131954;28;20190;-58
2024/01/16 09:31:08;;;;;;;3.53;3.27;;;;;;;10.06;60.92;98961.03;5132092;28;20194;-58
2024/01/16 09:33:36;;;;;;;6.83;4.10;;;;;;;9.90;59.38;98969.38;5131667;28;20718;-58
2024/01/16 09:36:03;;;;;;;4.50;2.90;;;;;;;9.82;59.56;98969.59;5132350;28;20258;-59
2024/01/16 09:38:31;;;;;;;5.13;2.90;;;;;;;9.99;58.42;98970.81;5131556;28;20269;-58
2024/01/16 09:40:59;;;;;;;19.80;3.53;;;;;;;10.17;56.89;98968.38;5132097;28;20213;-57
2024/01/16 09:43:28;;;;;;;3.00;2.80;;;;;;;10.26;57.01;98975.13;5132033;28;20186;-67
2024/01/16 09:45:57;;;;;;;2.23;2.10;;;;;;;10.38;55.65;98981.44;5131327;28;20629;-66
2024/01/16 09:48:23;;;;;;;3.47;3.10;;;;;;;10.59;54.82;98978.50;5131219;28;20229;-67
2024/01/16 09:50:51;;;;;;;13.97;3.53;;;;;;;10.77;53.91;98982.13;5131115;28;20190;-67
2024/01/16 09:53:18;;;;;;;3.03;2.10;;;;;;;10.65;53.31;98975.00;5129114;28;20191;-67
2024/01/16 09:55:46;;;;;;;7.60;2.80;;;;;;;10.69;52.93;98974.41;5131635;28;20193;-68
2024/01/16 09:58:14;;;;;;;6.17;2.90;;;;;;;10.66;52.02;98984.63;5134087;27;20221;-68
2024/01/16 10:00:44;;;;;;;3.93;2.30;;;;;;;10.50;51.68;98974.47;5135374;27;20189;-67
2024/01/16 10:03:13;;;;;;;9.67;2.33;;;;;;;10.07;52.53;98973.28;5135971;27;20182;-68
2024/01/16 10:05:41;;;;;;;5.27;1.90;;;;;;;10.03;54.00;98982.66;5135035;27;20269;-69
2024/01/16 10:08:09;;;;;;;3.07;2.40;;;;;;;10.10;52.91;98967.56;5133523;27;20199;-69
2024/01/16 10:10:36;;;;;;;3.13;2.90;;;;;;;10.33;53.53;98967.94;5132825;27;20256;-67
2024/01/16 10:13:04;;;;;;;2.67;2.43;;;;;;;10.49;52.08;98989.56;5131014;27;20199;-67
2024/01/16 10:15:32;;;;;;;2.20;2.10;;;;;;;10.36;51.58;98983.44;5134408;27;20195;-68
2024/01/16 10:18:00;;;;;;;3.17;2.83;;;;;;;10.25;51.92;98986.75;5135171;27;20717;-68
2024/01/16 10:20:33;;;;;;;2.60;2.50;;;;;;;10.36;51.85;98994.06;5134443;27;20222;-66
2024/01/16 10:23:00;;;;;;;2.27;2.10;;;;;;;10.24;52.21;98999.19;5135279;27;20256;-69
2024/01/16 10:25:28;;;;;;;9.87;2.77;;;;;;;10.28;51.97;98996.94;5135206;27;20190;-69
2024/01/16 10:28:04;;;;;;;2.67;2.50;;;;;;;10.24;51.43;98993.91;5135660;27;20613;-69
2024/01/16 10:30:32;;;;;;;14.63;3.80;;;;;;;10.29;51.19;99009.19;5134853;27;20175;-70
2024/01/16 10:33:14;;;;;;;4.40;4.07;;;;;;;10.54;51.35;99007.53;5133234;27;20203;-68
2024/01/16 10:35:41;;;;;;;4.27;2.93;;;;;;;10.92;50.42;98998.63;5133943;27;20267;-69
2024/01/16 10:38:07;;;;;;;9.73;2.50;;;;;;;10.60;51.29;99012.00;5134654;27;20243;-69
2024/01/16 10:40:35;;;;;;;2.77;2.57;;;;;;;10.54;51.78;99007.53;5134162;27;20186;-69
2024/01/16 10:43:04;;;;;;;3.77;2.17;;;;;;;10.52;51.04;99005.09;5134450;27;20247;-73
2024/01/16 10:45:31;;;;;;;5.67;3.27;;;;;;;10.56;53.52;99010.78;5134666;27;20187;-68
2024/01/16 10:48:04;;;;;;;3.57;3.10;;;;;;;10.66;55.04;99011.19;5134363;27;20247;-70
2024/01/16 10:50:32;;;;;;;4.37;3.17;;;;;;;10.70;53.61;99004.41;5134448;27;20187;-67
2024/01/16 10:53:01;;;;;;;12.53;3.37;;;;;;;10.65;51.18;99021.00;5134092;27;20206;-69
2024/01/16 10:55:30;;;;;;;10.70;4.37;;;;;;;10.42;51.96;99019.81;5134151;27;20755;-69
2024/01/16 10:58:00;;;;;;;16.23;6.07;;;;;;;10.34;52.04;99014.72;5134148;27;20303;-69
2024/01/16 11:00:29;;;;;;;3.43;3.13;;;;;;;10.20;52.15;99015.72;5134003;27;20180;-69
2024/01/16 11:03:02;;;;;;;2.67;2.00;;;;;;;9.86;53.19;99023.88;5134398;27;20222;-69
2024/01/16 11:05:31;;;;;;;2.47;1.83;;;;;;;9.71;52.12;99025.88;5133996;27;20243;-69
2024/01/16 11:08:00;;;;;;;3.30;1.97;;;;;;;9.80;53.44;99017.53;5133251;27;20267;-70
2024/01/16 11:10:28;;;;;;;3.13;2.20;;;;;;;9.74;53.49;99020.19;5133483;27;20691;-65
2024/01/16 11:13:00;;;;;;;2.40;2.30;;;;;;;9.75;53.90;99027.09;5134056;27;20615;-64
2024/01/16 11:15:28;;;;;;;16.60;3.50;;;;;;;9.91;52.50;99026.72;5133511;27;20262;-67
2024/01/16 11:17:56;;;;;;;2.27;1.73;;;;;;;9.97;51.82;99028.56;5134127;27;20228;-67
2024/01/16 11:20:25;;;;;;;2.00;1.90;;;;;;;10.07;51.33;99027.19;5133826;27;20190;-68
2024/01/16 11:22:55;;;;;;;10.57;2.50;;;;;;;9.98;49.79;99019.59;5133425;27;20614;-67
2024/01/16 11:25:22;;;;;;;10.70;2.20;;;;;;;10.05;49.36;99025.75;5133559;27;20182;-67
2024/01/16 11:27:51;;;;;;;7.80;2.03;;;;;;;9.98;49.58;99019.59;5133792;27;20246;-68
2024/01/16 11:30:31;;;;;;;1.93;1.80;;;;;;;10.22;50.17;99034.94;5133494;27;20194;-67